Naukati Bay, Alaska
Current Conditions -  °F | °C
As of 3:53 PM on Monday 20 Oct 2014 (Local Time) from PAKT Reporting Station
Broken Clouds Broken Clouds  
Wind Chill: 53°   Ceiling: 3300
Heat Index: 53°   Visibility: 10mi
Dew Point: 49°   Wind: 7mph
Humidity: 86%   Direction: 130°SE
Pressure: 29.41"   Gusts: NA
Location:  55.5909°N, 131.349°W
Report Text: PAKT 202353Z 13006KT 10SM SCT024 BKN033 BKN055 12/09 A2941 RMK AO2 SLP961 60000 T01170094 10122 20117 53002
Loading
Personal Weather Stations






























Interactive Weather Map
Tropical Storm Tracking
New forecast layout! Learn more

10-Day Weather Forecast

Advertisements
Track Severe Weather on mobile